sensor_id;sensor_type;location;lat;lon;timestamp;pressure;altitude;pressure_sealevel;temperature;humidity
25526;BME280;13424;48.424;11.258;2023-11-19T00:00:08;95634.28;;;9.06;83.10
25526;BME280;13424;48.424;11.258;2023-11-19T00:02:41;95632.91;;;9.15;83.44
25526;BME280;13424;48.424;11.258;2023-11-19T00:05:09;95624.47;;;9.30;83.00
25526;BME280;13424;48.424;11.258;2023-11-19T00:07:37;95623.78;;;9.11;83.62
25526;BME280;13424;48.424;11.258;2023-11-19T00:10:12;95616.94;;;9.39;82.76
25526;BME280;13424;48.424;11.258;2023-11-19T00:12:44;95611.38;;;9.05;84.25
25526;BME280;13424;48.424;11.258;2023-11-19T00:15:11;95613.94;;;9.47;83.02
25526;BME280;13424;48.424;11.258;2023-11-19T00:17:41;95609.91;;;9.33;83.85
25526;BME280;13424;48.424;11.258;2023-11-19T00:20:18;95601.44;;;9.12;84.59
25526;BME280;13424;48.424;11.258;2023-11-19T00:22:45;95605.28;;;9.16;84.98
25526;BME280;13424;48.424;11.258;2023-11-19T00:25:14;95599.28;;;9.33;84.60
25526;BME280;13424;48.424;11.258;2023-11-19T00:28:54;95604.47;;;9.28;84.95
25526;BME280;13424;48.424;11.258;2023-11-19T00:31:22;95602.59;;;9.40;85.00
25526;BME280;13424;48.424;11.258;2023-11-19T00:33:48;95595.56;;;9.34;84.90
25526;BME280;13424;48.424;11.258;2023-11-19T00:36:14;95586.75;;;9.33;85.15
25526;BME280;13424;48.424;11.258;2023-11-19T00:38:39;95579.56;;;9.22;86.55
25526;BME280;13424;48.424;11.258;2023-11-19T00:41:06;95575.50;;;9.66;84.79
25526;BME280;13424;48.424;11.258;2023-11-19T00:43:32;95566.25;;;9.57;84.61
25526;BME280;13424;48.424;11.258;2023-11-19T00:45:58;95559.78;;;9.53;85.25
25526;BME280;13424;48.424;11.258;2023-11-19T00:48:24;95558.59;;;9.72;84.49
25526;BME280;13424;48.424;11.258;2023-11-19T00:51:58;95555.44;;;9.75;84.70
25526;BME280;13424;48.424;11.258;2023-11-19T00:54:25;95550.38;;;9.74;84.90
25526;BME280;13424;48.424;11.258;2023-11-19T00:56:52;95556.63;;;9.68;85.01
25526;BME280;13424;48.424;11.258;2023-11-19T00:59:19;95543.34;;;9.56;86.22
25526;BME280;13424;48.424;11.258;2023-11-19T01:01:46;95545.72;;;9.69;86.50
25526;BME280;13424;48.424;11.258;2023-11-19T01:04:14;95536.69;;;9.70;86.13
25526;BME280;13424;48.424;11.258;2023-11-19T01:06:41;95534.03;;;9.70;86.28
25526;BME280;13424;48.424;11.258;2023-11-19T01:09:08;95529.22;;;9.96;85.45
25526;BME280;13424;48.424;11.258;2023-11-19T01:11:35;95538.34;;;10.00;85.29
25526;BME280;13424;48.424;11.258;2023-11-19T01:17:56;95530.53;;;9.82;86.47
25526;BME280;13424;48.424;11.258;2023-11-19T01:20:22;95527.63;;;9.83;87.29
25526;BME280;13424;48.424;11.258;2023-11-19T01:22:49;95532.84;;;9.90;87.07
25526;BME280;13424;48.424;11.258;2023-11-19T01:25:15;95534.09;;;9.87;87.55
25526;BME280;13424;48.424;11.258;2023-11-19T01:27:41;95525.66;;;9.78;88.22
25526;BME280;13424;48.424;11.258;2023-11-19T01:30:09;95524.72;;;9.85;88.20
25526;BME280;13424;48.424;11.258;2023-11-19T01:32:39;95534.44;;;9.91;88.17
25526;BME280;13424;48.424;11.258;2023-11-19T01:35:06;95537.81;;;9.86;88.89
25526;BME280;13424;48.424;11.258;2023-11-19T01:37:34;95532.84;;;9.90;88.55
25526;BME280;13424;48.424;11.258;2023-11-19T01:40:01;95524.84;;;10.18;87.87
25526;BME280;13424;48.424;11.258;2023-11-19T01:42:39;95521.19;;;10.07;88.82
25526;BME280;13424;48.424;11.258;2023-11-19T01:49:32;95497.59;;;10.28;87.87
25526;BME280;13424;48.424;11.258;2023-11-19T01:51:59;95503.75;;;10.28;88.21
25526;BME280;13424;48.424;11.258;2023-11-19T01:54:25;95498.72;;;10.32;88.86
25526;BME280;13424;48.424;11.258;2023-11-19T01:56:55;95491.22;;;10.29;88.96
25526;BME280;13424;48.424;11.258;2023-11-19T01:59:24;95491.94;;;10.41;89.52
25526;BME280;13424;48.424;11.258;2023-11-19T02:01:55;95489.53;;;10.40;89.29
25526;BME280;13424;48.424;11.258;2023-11-19T02:04:23;95476.47;;;10.55;89.11
25526;BME280;13424;48.424;11.258;2023-11-19T02:06:51;95467.56;;;10.66;88.92
25526;BME280;13424;48.424;11.258;2023-11-19T02:09:20;95473.06;;;10.43;89.86
25526;BME280;13424;48.424;11.258;2023-11-19T02:11:46;95481.78;;;10.55;90.00
25526;BME280;13424;48.424;11.258;2023-11-19T02:14:18;95465.69;;;10.50;90.49
25526;BME280;13424;48.424;11.258;2023-11-19T02:16:48;95457.88;;;10.60;90.11
25526;BME280;13424;48.424;11.258;2023-11-19T02:19:14;95452.38;;;10.50;90.65
25526;BME280;13424;48.424;11.258;2023-11-19T02:21:41;95449.53;;;10.56;91.17
25526;BME280;13424;48.424;11.258;2023-11-19T02:24:11;95441.13;;;10.31;92.48
25526;BME280;13424;48.424;11.258;2023-11-19T02:27:08;95445.56;;;10.42;91.95
25526;BME280;13424;48.424;11.258;2023-11-19T02:29:36;95440.44;;;10.36;93.21
25526;BME280;13424;48.424;11.258;2023-11-19T02:32:03;95437.66;;;10.47;92.97
25526;BME280;13424;48.424;11.258;2023-11-19T02:34:29;95439.84;;;10.50;92.68
25526;BME280;13424;48.424;11.258;2023-11-19T02:36:55;95440.31;;;10.64;92.51
25526;BME280;13424;48.424;11.258;2023-11-19T02:39:21;95426.34;;;10.57;92.98
25526;BME280;13424;48.424;11.258;2023-11-19T02:41:49;95430.22;;;10.66;93.18
25526;BME280;13424;48.424;11.258;2023-11-19T02:44:17;95424.69;;;10.51;94.01
25526;BME280;13424;48.424;11.258;2023-11-19T02:46:43;95409.94;;;10.65;93.49
25526;BME280;13424;48.424;11.258;2023-11-19T02:49:09;95413.59;;;10.59;94.06
25526;BME280;13424;48.424;11.258;2023-11-19T02:52:26;95414.19;;;11.00;92.35
25526;BME280;13424;48.424;11.258;2023-11-19T02:54:52;95408.06;;;10.82;92.88
25526;BME280;13424;48.424;11.258;2023-11-19T02:57:18;95410.31;;;10.90;92.90
25526;BME280;13424;48.424;11.258;2023-11-19T02:59:47;95412.75;;;10.58;93.85
25526;BME280;13424;48.424;11.258;2023-11-19T03:02:13;95411.69;;;10.93;92.65
25526;BME280;13424;48.424;11.258;2023-11-19T03:04:41;95412.41;;;10.88;93.28
25526;BME280;13424;48.424;11.258;2023-11-19T03:07:11;95418.91;;;10.76;94.41
25526;BME280;13424;48.424;11.258;2023-11-19T03:09:38;95427.41;;;11.11;92.22
25526;BME280;13424;48.424;11.258;2023-11-19T03:12:07;95417.69;;;10.83;93.09
25526;BME280;13424;48.424;11.258;2023-11-19T03:14:35;95423.59;;;10.85;92.84
25526;BME280;13424;48.424;11.258;2023-11-19T03:17:01;95413.69;;;11.03;92.79
25526;BME280;13424;48.424;11.258;2023-11-19T03:19:27;95415.28;;;11.04;92.20
25526;BME280;13424;48.424;11.258;2023-11-19T03:21:53;95415.81;;;10.84;93.46
25526;BME280;13424;48.424;11.258;2023-11-19T03:24:19;95415.31;;;10.87;92.92
25526;BME280;13424;48.424;11.258;2023-11-19T03:26:49;95420.50;;;10.94;92.55
25526;BME280;13424;48.424;11.258;2023-11-19T03:29:18;95428.84;;;11.19;92.07
25526;BME280;13424;48.424;11.258;2023-11-19T03:31:44;95430.84;;;11.07;92.23
25526;BME280;13424;48.424;11.258;2023-11-19T03:34:11;95428.97;;;11.07;91.81
25526;BME280;13424;48.424;11.258;2023-11-19T03:36:37;95432.06;;;11.21;91.14
25526;BME280;13424;48.424;11.258;2023-11-19T03:39:03;95423.69;;;11.34;90.50
25526;BME280;13424;48.424;11.258;2023-11-19T03:41:29;95425.25;;;11.30;90.63
25526;BME280;13424;48.424;11.258;2023-11-19T03:43:55;95415.78;;;11.01;92.20
25526;BME280;13424;48.424;11.258;2023-11-19T03:46:22;95427.28;;;11.45;90.33
25526;BME280;13424;48.424;11.258;2023-11-19T03:48:49;95421.47;;;11.48;90.36
25526;BME280;13424;48.424;11.258;2023-11-19T03:51:16;95417.03;;;11.59;89.42
25526;BME280;13424;48.424;11.258;2023-11-19T03:53:52;95426.16;;;11.19;91.22
25526;BME280;13424;48.424;11.258;2023-11-19T03:56:18;95421.03;;;11.34;90.74
25526;BME280;13424;48.424;11.258;2023-11-19T03:58:44;95417.81;;;11.32;90.87
25526;BME280;13424;48.424;11.258;2023-11-19T04:01:13;95425.84;;;11.37;91.02
25526;BME280;13424;48.424;11.258;2023-11-19T04:03:39;95424.97;;;11.10;91.82
25526;BME280;13424;48.424;11.258;2023-11-19T04:06:06;95427.78;;;11.20;92.13
25526;BME280;13424;48.424;11.258;2023-11-19T04:08:32;95427.91;;;11.08;93.17
25526;BME280;13424;48.424;11.258;2023-11-19T04:10:59;95431.94;;;11.11;92.99
25526;BME280;13424;48.424;11.258;2023-11-19T04:13:27;95435.38;;;10.89;94.27
25526;BME280;13424;48.424;11.258;2023-11-19T04:15:53;95427.34;;;11.28;92.53
25526;BME280;13424;48.424;11.258;2023-11-19T04:18:19;95429.78;;;11.30;92.29
25526;BME280;13424;48.424;11.258;2023-11-19T04:20:45;95437.41;;;11.21;92.65
25526;BME280;13424;48.424;11.258;2023-11-19T04:23:11;95442.94;;;10.98;93.92
25526;BME280;13424;48.424;11.258;2023-11-19T04:25:37;95435.66;;;11.10;93.53
25526;BME280;13424;48.424;11.258;2023-11-19T04:28:05;95426.13;;;10.97;93.59
25526;BME280;13424;48.424;11.258;2023-11-19T04:30:32;95425.50;;;11.07;93.78
25526;BME280;13424;48.424;11.258;2023-11-19T04:32:58;95427.53;;;11.22;92.64
25526;BME280;13424;48.424;11.258;2023-11-19T04:35:24;95412.47;;;11.32;92.24
25526;BME280;13424;48.424;11.258;2023-11-19T04:37:52;95413.00;;;11.12;93.80
25526;BME280;13424;48.424;11.258;2023-11-19T04:40:18;95424.88;;;11.43;92.20
25526;BME280;13424;48.424;11.258;2023-11-19T04:42:44;95426.59;;;11.11;93.89
25526;BME280;13424;48.424;11.258;2023-11-19T04:45:10;95426.25;;;11.24;93.04
25526;BME280;13424;48.424;11.258;2023-11-19T04:47:37;95411.97;;;11.35;92.19
25526;BME280;13424;48.424;11.258;2023-11-19T04:50:03;95419.28;;;11.23;93.47
25526;BME280;13424;48.424;11.258;2023-11-19T04:52:29;95413.56;;;11.36;93.36
25526;BME280;13424;48.424;11.258;2023-11-19T04:54:55;95419.59;;;11.49;92.49
25526;BME280;13424;48.424;11.258;2023-11-19T04:57:21;95410.69;;;11.21;94.16
25526;BME280;13424;48.424;11.258;2023-11-19T04:59:47;95438.00;;;11.23;93.17
25526;BME280;13424;48.424;11.258;2023-11-19T05:02:13;95448.41;;;11.25;94.55
25526;BME280;13424;48.424;11.258;2023-11-19T05:04:44;95430.91;;;11.34;93.50
25526;BME280;13424;48.424;11.258;2023-11-19T05:07:11;95437.78;;;11.52;92.22
25526;BME280;13424;48.424;11.258;2023-11-19T05:09:37;95437.25;;;11.50;92.89
25526;BME280;13424;48.424;11.258;2023-11-19T05:12:03;95429.16;;;11.66;91.41
25526;BME280;13424;48.424;11.258;2023-11-19T05:14:29;95435.13;;;11.52;92.28
25526;BME280;13424;48.424;11.258;2023-11-19T05:16:55;95435.06;;;11.90;90.94
25526;BME280;13424;48.424;11.258;2023-11-19T05:19:21;95431.53;;;11.41;92.97
25526;BME280;13424;48.424;11.258;2023-11-19T05:21:49;95431.31;;;11.91;91.03
25526;BME280;13424;48.424;11.258;2023-11-19T05:24:17;95426.03;;;11.53;92.73
25526;BME280;13424;48.424;11.258;2023-11-19T05:26:43;95430.09;;;11.77;90.99
25526;BME280;13424;48.424;11.258;2023-11-19T05:29:12;95423.56;;;11.90;91.02
25526;BME280;13424;48.424;11.258;2023-11-19T05:31:38;95429.97;;;11.67;91.15
25526;BME280;13424;48.424;11.258;2023-11-19T05:34:04;95437.19;;;11.88;91.03
25526;BME280;13424;48.424;11.258;2023-11-19T05:36:31;95427.19;;;11.35;94.08
25526;BME280;13424;48.424;11.258;2023-11-19T05:38:57;95429.84;;;11.57;93.12
25526;BME280;13424;48.424;11.258;2023-11-19T05:41:23;95416.31;;;11.41;93.56
25526;BME280;13424;48.424;11.258;2023-11-19T05:43:51;95422.38;;;11.59;92.62
25526;BME280;13424;48.424;11.258;2023-11-19T05:46:17;95426.44;;;11.61;93.25
25526;BME280;13424;48.424;11.258;2023-11-19T05:48:43;95423.00;;;11.66;92.61
25526;BME280;13424;48.424;11.258;2023-11-19T05:51:11;95420.25;;;11.61;92.46
25526;BME280;13424;48.424;11.258;2023-11-19T05:53:37;95423.56;;;11.68;93.07
25526;BME280;13424;48.424;11.258;2023-11-19T05:56:03;95422.56;;;11.52;93.36
25526;BME280;13424;48.424;11.258;2023-11-19T05:58:30;95421.00;;;11.78;92.11
25526;BME280;13424;48.424;11.258;2023-11-19T06:00:58;95431.22;;;11.81;91.74
25526;BME280;13424;48.424;11.258;2023-11-19T06:03:26;95423.56;;;11.90;91.94
25526;BME280;13424;48.424;11.258;2023-11-19T06:05:52;95433.63;;;11.61;92.99
25526;BME280;13424;48.424;11.258;2023-11-19T06:08:20;95429.66;;;11.41;94.28
25526;BME280;13424;48.424;11.258;2023-11-19T06:10:46;95429.34;;;11.60;93.20
25526;BME280;13424;48.424;11.258;2023-11-19T06:13:13;95422.81;;;11.72;92.64
25526;BME280;13424;48.424;11.258;2023-11-19T06:15:42;95425.13;;;11.64;92.99
25526;BME280;13424;48.424;11.258;2023-11-19T06:18:09;95424.97;;;11.75;91.95
25526;BME280;13424;48.424;11.258;2023-11-19T06:20:35;95433.44;;;11.89;91.39
25526;BME280;13424;48.424;11.258;2023-11-19T06:23:01;95431.63;;;11.95;91.32
25526;BME280;13424;48.424;11.258;2023-11-19T06:25:27;95431.84;;;11.88;91.44
25526;BME280;13424;48.424;11.258;2023-11-19T06:27:54;95434.13;;;12.01;91.11
25526;BME280;13424;48.424;11.258;2023-11-19T06:30:20;95431.44;;;12.01;91.08
25526;BME280;13424;48.424;11.258;2023-11-19T06:32:49;95438.53;;;11.69;92.91
25526;BME280;13424;48.424;11.258;2023-11-19T06:35:21;95432.84;;;11.82;93.09
25526;BME280;13424;48.424;11.258;2023-11-19T06:37:47;95430.91;;;11.78;93.28
25526;BME280;13424;48.424;11.258;2023-11-19T06:40:13;95425.44;;;11.89;92.50
25526;BME280;13424;48.424;11.258;2023-11-19T06:42:41;95430.72;;;11.84;92.71
25526;BME280;13424;48.424;11.258;2023-11-19T06:45:07;95437.97;;;11.89;92.05
25526;BME280;13424;48.424;11.258;2023-11-19T06:47:34;95438.88;;;11.99;92.40
25526;BME280;13424;48.424;11.258;2023-11-19T06:50:00;95437.50;;;12.19;91.26
25526;BME280;13424;48.424;11.258;2023-11-19T06:52:26;95425.06;;;12.08;91.96
25526;BME280;13424;48.424;11.258;2023-11-19T06:54:52;95428.31;;;12.10;91.70
25526;BME280;13424;48.424;11.258;2023-11-19T06:57:18;95437.50;;;12.24;91.17
25526;BME280;13424;48.424;11.258;2023-11-19T06:59:46;95434.91;;;12.02;91.66
25526;BME280;13424;48.424;11.258;2023-11-19T07:02:12;95442.22;;;12.12;92.11
25526;BME280;13424;48.424;11.258;2023-11-19T07:04:38;95447.63;;;12.17;91.72
25526;BME280;13424;48.424;11.258;2023-11-19T07:07:04;95450.06;;;12.23;91.24
25526;BME280;13424;48.424;11.258;2023-11-19T07:09:31;95453.81;;;12.22;91.20
25526;BME280;13424;48.424;11.258;2023-11-19T07:11:57;95445.44;;;12.14;92.07
25526;BME280;13424;48.424;11.258;2023-11-19T07:14:37;95441.72;;;12.42;90.84
25526;BME280;13424;48.424;11.258;2023-11-19T07:17:03;95452.28;;;12.32;91.55
25526;BME280;13424;48.424;11.258;2023-11-19T07:19:29;95453.34;;;12.30;91.30
25526;BME280;13424;48.424;11.258;2023-11-19T07:21:55;95455.03;;;12.37;91.61
25526;BME280;13424;48.424;11.258;2023-11-19T07:24:22;95448.31;;;12.66;90.13
25526;BME280;13424;48.424;11.258;2023-11-19T07:26:48;95464.66;;;12.70;90.33
25526;BME280;13424;48.424;11.258;2023-11-19T07:29:15;95460.78;;;12.50;90.74
25526;BME280;13424;48.424;11.258;2023-11-19T07:31:43;95472.22;;;12.46;90.70
25526;BME280;13424;48.424;11.258;2023-11-19T07:34:11;95482.88;;;12.41;91.30
25526;BME280;13424;48.424;11.258;2023-11-19T07:36:38;95478.56;;;12.35;91.59
25526;BME280;13424;48.424;11.258;2023-11-19T07:39:06;95478.84;;;12.38;91.29
25526;BME280;13424;48.424;11.258;2023-11-19T07:41:32;95484.19;;;12.38;92.19
25526;BME280;13424;48.424;11.258;2023-11-19T07:43:58;95491.91;;;12.35;92.42
25526;BME280;13424;48.424;11.258;2023-11-19T07:46:25;95484.38;;;12.58;91.66
25526;BME280;13424;48.424;11.258;2023-11-19T07:48:51;95470.53;;;12.67;90.88
25526;BME280;13424;48.424;11.258;2023-11-19T07:51:18;95472.34;;;12.61;91.30
25526;BME280;13424;48.424;11.258;2023-11-19T07:53:44;95477.16;;;12.59;91.43
25526;BME280;13424;48.424;11.258;2023-11-19T07:57:15;95489.56;;;13.07;89.81
25526;BME280;13424;48.424;11.258;2023-11-19T07:59:41;95482.84;;;12.68;90.74
25526;BME280;13424;48.424;11.258;2023-11-19T08:02:07;95483.13;;;12.71;91.73
25526;BME280;13424;48.424;11.258;2023-11-19T08:04:33;95487.97;;;12.42;93.02
25526;BME280;13424;48.424;11.258;2023-11-19T08:07:00;95484.78;;;12.72;91.45
25526;BME280;13424;48.424;11.258;2023-11-19T08:09:26;95485.56;;;12.73;91.60
25526;BME280;13424;48.424;11.258;2023-11-19T08:11:52;95485.16;;;12.91;90.51
25526;BME280;13424;48.424;11.258;2023-11-19T08:14:18;95490.06;;;12.99;90.58
25526;BME280;13424;48.424;11.258;2023-11-19T08:16:44;95482.66;;;13.11;90.56
25526;BME280;13424;48.424;11.258;2023-11-19T08:19:10;95484.97;;;13.03;90.38
25526;BME280;13424;48.424;11.258;2023-11-19T08:21:36;95496.28;;;13.10;90.43
25526;BME280;13424;48.424;11.258;2023-11-19T08:24:15;95488.75;;;13.07;90.68
25526;BME280;13424;48.424;11.258;2023-11-19T08:26:40;95484.88;;;13.25;90.27
25526;BME280;13424;48.424;11.258;2023-11-19T08:29:07;95482.38;;;13.55;88.82
25526;BME280;13424;48.424;11.258;2023-11-19T08:31:33;95482.00;;;13.31;89.59
25526;BME280;13424;48.424;11.258;2023-11-19T08:33:59;95480.31;;;13.20;90.35
25526;BME280;13424;48.424;11.258;2023-11-19T08:36:25;95488.28;;;13.15;90.21
25526;BME280;13424;48.424;11.258;2023-11-19T08:38:51;95483.38;;;13.39;89.80
25526;BME280;13424;48.424;11.258;2023-11-19T08:41:17;95491.50;;;13.17;90.58
25526;BME280;13424;48.424;11.258;2023-11-19T08:43:45;95489.56;;;13.45;89.47
25526;BME280;13424;48.424;11.258;2023-11-19T08:46:12;95484.47;;;13.43;89.99
25526;BME280;13424;48.424;11.258;2023-11-19T08:48:38;95499.00;;;13.52;89.75
25526;BME280;13424;48.424;11.258;2023-11-19T08:51:05;95475.94;;;13.56;89.54
25526;BME280;13424;48.424;11.258;2023-11-19T08:53:31;95483.22;;;13.66;88.90
25526;BME280;13424;48.424;11.258;2023-11-19T08:55:57;95486.50;;;13.78;88.92
25526;BME280;13424;48.424;11.258;2023-11-19T08:58:23;95485.38;;;13.59;89.44
25526;BME280;13424;48.424;11.258;2023-11-19T09:00:49;95487.56;;;13.82;89.39
25526;BME280;13424;48.424;11.258;2023-11-19T09:03:15;95490.53;;;13.76;89.58
25526;BME280;13424;48.424;11.258;2023-11-19T09:05:41;95501.38;;;14.11;88.16
25526;BME280;13424;48.424;11.258;2023-11-19T09:08:07;95491.06;;;13.78;89.43
25526;BME280;13424;48.424;11.258;2023-11-19T09:10:34;95493.31;;;14.11;88.51
25526;BME280;13424;48.424;11.258;2023-11-19T09:13:00;95497.31;;;14.04;88.19
25526;BME280;13424;48.424;11.258;2023-11-19T09:15:29;95495.16;;;13.90;88.50
25526;BME280;13424;48.424;11.258;2023-11-19T09:17:55;95493.28;;;13.96;88.66
25526;BME280;13424;48.424;11.258;2023-11-19T09:20:21;95481.34;;;13.66;90.09
25526;BME280;13424;48.424;11.258;2023-11-19T09:22:47;95475.53;;;13.85;89.54
25526;BME280;13424;48.424;11.258;2023-11-19T09:25:13;95472.81;;;13.69;89.63
25526;BME280;13424;48.424;11.258;2023-11-19T09:27:43;95482.63;;;14.27;88.10
25526;BME280;13424;48.424;11.258;2023-11-19T09:30:12;95502.72;;;14.19;88.96
25526;BME280;13424;48.424;11.258;2023-11-19T09:32:38;95489.56;;;14.12;88.42
25526;BME280;13424;48.424;11.258;2023-11-19T09:35:05;95490.97;;;14.40;88.45
25526;BME280;13424;48.424;11.258;2023-11-19T09:37:32;95501.13;;;14.18;90.30
25526;BME280;13424;48.424;11.258;2023-11-19T09:39:58;95494.41;;;14.20;89.94
25526;BME280;13424;48.424;11.258;2023-11-19T09:42:24;95489.94;;;14.51;89.10
25526;BME280;13424;48.424;11.258;2023-11-19T09:44:51;95481.56;;;14.33;90.22
25526;BME280;13424;48.424;11.258;2023-11-19T09:47:19;95487.16;;;14.21;90.18
25526;BME280;13424;48.424;11.258;2023-11-19T09:49:46;95484.78;;;14.30;90.59
25526;BME280;13424;48.424;11.258;2023-11-19T09:52:13;95473.31;;;14.55;89.13
25526;BME280;13424;48.424;11.258;2023-11-19T09:54:40;95482.44;;;14.74;88.58
25526;BME280;13424;48.424;11.258;2023-11-19T09:57:07;95484.88;;;14.75;88.44
25526;BME280;13424;48.424;11.258;2023-11-19T09:59:35;95481.13;;;14.71;88.12
25526;BME280;13424;48.424;11.258;2023-11-19T10:02:03;95489.16;;;14.97;87.71
25526;BME280;13424;48.424;11.258;2023-11-19T10:04:30;95484.88;;;14.70;88.08
25526;BME280;13424;48.424;11.258;2023-11-19T10:06:58;95481.63;;;15.14;86.85
25526;BME280;13424;48.424;11.258;2023-11-19T10:09:24;95474.63;;;15.23;86.62
25526;BME280;13424;48.424;11.258;2023-11-19T10:11:50;95469.53;;;15.27;87.35
25526;BME280;13424;48.424;11.258;2023-11-19T10:14:20;95478.94;;;15.19;87.15
25526;BME280;13424;48.424;11.258;2023-11-19T10:16:48;95471.44;;;15.01;86.77
25526;BME280;13424;48.424;11.258;2023-11-19T10:19:21;95474.66;;;14.93;88.40
25526;BME280;13424;48.424;11.258;2023-11-19T10:21:47;95467.09;;;15.15;86.42
25526;BME280;13424;48.424;11.258;2023-11-19T10:24:13;95473.03;;;15.12;87.60
25526;BME280;13424;48.424;11.258;2023-11-19T10:26:40;95461.75;;;15.15;86.46
25526;BME280;13424;48.424;11.258;2023-11-19T10:29:07;95463.78;;;15.74;86.59
25526;BME280;13424;48.424;11.258;2023-11-19T10:31:34;95449.53;;;15.69;85.66
25526;BME280;13424;48.424;11.258;2023-11-19T10:33:59;95463.66;;;15.95;83.76
25526;BME280;13424;48.424;11.258;2023-11-19T10:36:39;95462.69;;;15.70;85.94
25526;BME280;13424;48.424;11.258;2023-11-19T10:39:53;95453.59;;;15.51;84.68
25526;BME280;13424;48.424;11.258;2023-11-19T10:42:21;95461.88;;;15.75;85.00
25526;BME280;13424;48.424;11.258;2023-11-19T10:44:48;95448.75;;;15.53;85.33
25526;BME280;13424;48.424;11.258;2023-11-19T10:47:15;95437.41;;;15.71;84.82
25526;BME280;13424;48.424;11.258;2023-11-19T10:50:30;95441.13;;;15.90;84.42
25526;BME280;13424;48.424;11.258;2023-11-19T10:52:57;95440.81;;;16.41;82.46
25526;BME280;13424;48.424;11.258;2023-11-19T10:55:34;95444.81;;;16.05;83.00
25526;BME280;13424;48.424;11.258;2023-11-19T10:58:07;95450.50;;;15.93;83.54
25526;BME280;13424;48.424;11.258;2023-11-19T11:00:57;95444.22;;;15.43;84.17
25526;BME280;13424;48.424;11.258;2023-11-19T11:03:31;95448.28;;;15.30;85.71
25526;BME280;13424;48.424;11.258;2023-11-19T11:06:03;95438.06;;;15.38;85.75
25526;BME280;13424;48.424;11.258;2023-11-19T11:08:30;95438.53;;;15.55;86.27
25526;BME280;13424;48.424;11.258;2023-11-19T11:10:57;95420.78;;;15.59;84.75
25526;BME280;13424;48.424;11.258;2023-11-19T11:13:26;95425.22;;;15.94;84.29
25526;BME280;13424;48.424;11.258;2023-11-19T11:15:56;95442.06;;;16.10;83.22
25526;BME280;13424;48.424;11.258;2023-11-19T11:18:26;95417.59;;;15.52;84.64
25526;BME280;13424;48.424;11.258;2023-11-19T11:21:13;95426.47;;;16.12;84.31
25526;BME280;13424;48.424;11.258;2023-11-19T11:24:09;95432.13;;;16.10;83.22
25526;BME280;13424;48.424;11.258;2023-11-19T11:27:48;95424.81;;;16.16;82.29
25526;BME280;13424;48.424;11.258;2023-11-19T11:30:59;95431.00;;;16.56;82.19
25526;BME280;13424;48.424;11.258;2023-11-19T11:36:24;95416.97;;;16.25;81.63
25526;BME280;13424;48.424;11.258;2023-11-19T11:38:52;95404.09;;;15.72;83.51
25526;BME280;13424;48.424;11.258;2023-11-19T11:41:22;95407.84;;;15.71;83.27
25526;BME280;13424;48.424;11.258;2023-11-19T11:43:53;95415.75;;;16.46;82.80
25526;BME280;13424;48.424;11.258;2023-11-19T11:49:08;95423.16;;;15.71;83.22
25526;BME280;13424;48.424;11.258;2023-11-19T11:54:26;95433.63;;;16.66;82.73
25526;BME280;13424;48.424;11.258;2023-11-19T11:57:06;95426.63;;;16.26;82.21
25526;BME280;13424;48.424;11.258;2023-11-19T12:02:31;95423.06;;;17.09;79.25
25526;BME280;13424;48.424;11.258;2023-11-19T12:05:02;95425.03;;;16.69;79.84
25526;BME280;13424;48.424;11.258;2023-11-19T12:07:31;95416.47;;;16.57;80.71
25526;BME280;13424;48.424;11.258;2023-11-19T12:10:24;95423.34;;;16.34;79.69
25526;BME280;13424;48.424;11.258;2023-11-19T12:12:53;95413.25;;;16.21;81.11
25526;BME280;13424;48.424;11.258;2023-11-19T12:15:25;95414.25;;;16.64;80.49
25526;BME280;13424;48.424;11.258;2023-11-19T12:17:54;95405.91;;;16.26;79.87
25526;BME280;13424;48.424;11.258;2023-11-19T12:20:48;95402.91;;;15.94;81.54
25526;BME280;13424;48.424;11.258;2023-11-19T12:23:15;95389.28;;;16.19;81.18
25526;BME280;13424;48.424;11.258;2023-11-19T12:25:41;95397.94;;;16.11;80.76
25526;BME280;13424;48.424;11.258;2023-11-19T12:28:12;95385.06;;;16.08;80.34
25526;BME280;13424;48.424;11.258;2023-11-19T12:30:39;95382.47;;;15.87;81.04
25526;BME280;13424;48.424;11.258;2023-11-19T12:33:11;95389.66;;;16.02;81.13
25526;BME280;13424;48.424;11.258;2023-11-19T12:36:00;95382.97;;;16.00;80.41
25526;BME280;13424;48.424;11.258;2023-11-19T12:38:30;95379.34;;;15.75;80.83
25526;BME280;13424;48.424;11.258;2023-11-19T12:41:08;95378.75;;;15.88;80.20
25526;BME280;13424;48.424;11.258;2023-11-19T12:43:36;95372.13;;;16.10;80.10
25526;BME280;13424;48.424;11.258;2023-11-19T12:46:24;95366.31;;;15.98;80.26
25526;BME280;13424;48.424;11.258;2023-11-19T12:48:51;95366.22;;;15.53;80.65
25526;BME280;13424;48.424;11.258;2023-11-19T12:51:17;95371.59;;;16.13;79.84
25526;BME280;13424;48.424;11.258;2023-11-19T12:53:52;95365.66;;;16.11;79.73
25526;BME280;13424;48.424;11.258;2023-11-19T12:56:21;95369.09;;;15.77;80.29
25526;BME280;13424;48.424;11.258;2023-11-19T12:58:48;95365.81;;;15.90;80.64
25526;BME280;13424;48.424;11.258;2023-11-19T13:01:20;95359.84;;;15.99;79.73
25526;BME280;13424;48.424;11.258;2023-11-19T13:03:47;95358.94;;;15.69;80.40
25526;BME280;13424;48.424;11.258;2023-11-19T13:06:15;95350.84;;;15.74;80.69
25526;BME280;13424;48.424;11.258;2023-11-19T13:08:49;95351.84;;;15.88;80.29
25526;BME280;13424;48.424;11.258;2023-11-19T13:11:35;95351.16;;;15.68;81.27
25526;BME280;13424;48.424;11.258;2023-11-19T13:14:05;95344.28;;;15.90;80.93
25526;BME280;13424;48.424;11.258;2023-11-19T13:20:24;95361.91;;;16.12;79.48
25526;BME280;13424;48.424;11.258;2023-11-19T13:23:02;95352.09;;;16.26;79.01
25526;BME280;13424;48.424;11.258;2023-11-19T13:25:29;95349.84;;;16.43;79.01